Time;durP1;ratioP1;P1;durP2;ratioP2;P2;SDS_P1;SDS_P2;PMS_P1;PMS_P2;Temp;Humidity;BMP_temperature;BMP_pressure;BME280_temperature;BME280_humidity;BME280_pressure;Samples;Min_cycle;Max_cycle;Signal;HPM_P1;HPM_P2
2022/11/08 00:02:21;;;;;;;0.30;0.30;;;6.40;99.90;;;;;;5062575;28;20427;-73
2022/11/08 00:04:48;;;;;;;0.50;0.50;;;6.20;99.90;;;;;;5063828;28;20479;-73
2022/11/08 00:15:39;;;;;;;0.55;0.55;;;5.80;99.90;;;;;;5059747;28;20720;-73
2022/11/08 00:18:08;;;;;;;0.50;0.50;;;5.70;99.90;;;;;;5068613;28;20427;-74
2022/11/08 00:20:34;;;;;;;0.95;0.90;;;5.60;99.90;;;;;;5067386;28;20419;-74
2022/11/08 00:23:02;;;;;;;0.43;0.43;;;5.60;99.90;;;;;;5058567;28;20430;-73
2022/11/08 00:25:29;;;;;;;0.45;0.45;;;5.50;99.90;;;;;;5061526;28;20833;-74
2022/11/08 00:27:56;;;;;;;2.20;1.30;;;5.50;99.90;;;;;;5070705;28;20892;-73
2022/11/08 00:30:24;;;;;;;1.45;0.70;;;5.50;99.90;;;;;;5079330;28;20952;-74
2022/11/08 00:32:51;;;;;;;0.43;0.43;;;5.60;99.90;;;;;;5064051;28;20936;-75
2022/11/08 00:35:20;;;;;;;0.67;0.67;;;5.50;99.90;;;;;;5060816;28;20423;-74
2022/11/08 00:37:47;;;;;;;0.60;0.60;;;5.50;99.90;;;;;;5063857;28;20429;-74
2022/11/08 00:40:14;;;;;;;0.50;0.50;;;5.50;99.90;;;;;;5069769;28;20438;-73
2022/11/08 00:42:40;;;;;;;1.55;0.65;;;5.50;99.90;;;;;;5067619;28;20482;-73
2022/11/08 00:45:07;;;;;;;1.15;1.05;;;5.60;99.90;;;;;;5060506;28;20431;-74
2022/11/08 00:47:34;;;;;;;3.08;0.98;;;5.60;99.90;;;;;;5066928;28;20485;-73
2022/11/08 00:50:01;;;;;;;0.90;0.55;;;5.50;99.90;;;;;;5067858;28;20461;-74
2022/11/08 00:52:27;;;;;;;1.85;1.10;;;5.50;99.90;;;;;;5069458;28;20790;-74
2022/11/08 00:54:54;;;;;;;0.70;0.70;;;5.40;99.90;;;;;;5053540;28;20427;-74
2022/11/08 00:57:24;;;;;;;1.95;0.82;;;5.30;99.90;;;;;;5060628;28;20423;-74
2022/11/08 01:00:11;;;;;;;1.20;0.60;;;5.30;99.90;;;;;;5052357;28;20413;-74
2022/11/08 01:02:38;;;;;;;0.70;0.70;;;5.20;99.90;;;;;;5065562;28;20425;-74
2022/11/08 01:05:07;;;;;;;0.70;0.40;;;5.10;99.90;;;;;;5057502;28;20471;-74
2022/11/08 01:07:34;;;;;;;0.60;0.57;;;5.10;99.90;;;;;;5054433;28;20431;-74
2022/11/08 01:10:04;;;;;;;1.15;0.77;;;5.10;99.90;;;;;;5079953;28;20435;-74
2022/11/08 01:12:31;;;;;;;1.00;1.00;;;5.00;99.90;;;;;;5065147;28;20508;-74
2022/11/08 01:14:58;;;;;;;0.40;0.40;;;5.00;99.90;;;;;;5060819;28;21113;-76
2022/11/08 01:17:24;;;;;;;0.77;0.77;;;5.00;99.90;;;;;;5071608;28;20506;-74
2022/11/08 01:19:51;;;;;;;1.85;0.82;;;5.00;99.90;;;;;;5063293;28;20437;-73
2022/11/08 01:22:18;;;;;;;0.67;0.67;;;5.00;99.90;;;;;;5069863;28;20427;-73
2022/11/08 01:24:47;;;;;;;0.30;0.30;;;5.10;99.90;;;;;;5066003;28;20431;-73
2022/11/08 01:27:13;;;;;;;1.67;1.00;;;5.20;99.90;;;;;;5066860;28;20437;-73
2022/11/08 01:29:40;;;;;;;1.25;1.00;;;5.20;99.90;;;;;;5058159;28;20490;-73
2022/11/08 01:32:07;;;;;;;0.82;0.80;;;5.10;99.90;;;;;;5071195;28;20427;-73
2022/11/08 01:34:33;;;;;;;1.70;0.52;;;5.00;99.90;;;;;;5071596;28;20813;-73
2022/11/08 01:37:00;;;;;;;0.30;0.30;;;5.00;99.90;;;;;;5058335;28;20432;-73
2022/11/08 01:39:31;;;;;;;0.65;0.65;;;4.90;99.90;;;;;;5057221;28;20425;-73
2022/11/08 01:41:58;;;;;;;0.57;0.57;;;4.80;99.90;;;;;;5065256;28;20426;-73
2022/11/08 01:44:24;;;;;;;0.60;0.60;;;4.70;99.90;;;;;;5060306;28;20427;-74
2022/11/08 01:46:53;;;;;;;0.40;0.40;;;4.70;99.90;;;;;;5064387;28;20477;-74
2022/11/08 01:49:34;;;;;;;0.70;0.70;;;4.70;99.90;;;;;;5069707;28;20467;-74
2022/11/08 01:52:05;;;;;;;0.80;0.80;;;4.80;99.90;;;;;;5063223;28;20802;-73
2022/11/08 01:54:47;;;;;;;0.63;0.50;;;5.00;99.90;;;;;;5059171;28;20428;-74
2022/11/08 01:57:19;;;;;;;1.10;1.05;;;5.00;99.90;;;;;;5052022;28;20433;-73
2022/11/08 01:59:49;;;;;;;0.60;0.60;;;5.00;99.90;;;;;;5067159;28;20426;-73
2022/11/08 02:02:16;;;;;;;0.50;0.50;;;5.10;99.90;;;;;;5061174;28;20424;-73
2022/11/08 02:04:43;;;;;;;0.15;0.15;;;5.00;99.90;;;;;;5063391;28;20762;-73
2022/11/08 02:07:11;;;;;;;1.90;0.22;;;5.00;99.90;;;;;;5068917;28;20450;-73
2022/11/08 02:09:42;;;;;;;0.30;0.30;;;4.90;99.90;;;;;;5066076;28;20431;-74
2022/11/08 02:12:11;;;;;;;0.70;0.40;;;4.90;99.90;;;;;;5062561;28;20792;-73
2022/11/08 02:14:37;;;;;;;1.08;0.93;;;4.90;99.90;;;;;;5059492;28;20446;-74
2022/11/08 02:17:05;;;;;;;0.65;0.50;;;4.90;99.90;;;;;;5068231;28;20766;-73
2022/11/08 02:19:48;;;;;;;0.50;0.50;;;4.90;99.90;;;;;;5067769;28;20473;-74
2022/11/08 02:22:36;;;;;;;0.68;0.68;;;4.80;99.90;;;;;;5059303;28;20499;-74
2022/11/08 02:25:03;;;;;;;1.70;0.50;;;4.90;99.90;;;;;;5059117;28;20437;-74
2022/11/08 02:27:35;;;;;;;0.20;0.20;;;4.90;99.90;;;;;;5058036;28;21138;-74
2022/11/08 02:30:02;;;;;;;1.23;0.70;;;4.90;99.90;;;;;;5068288;28;20431;-74
2022/11/08 02:32:39;;;;;;;0.50;0.50;;;4.90;99.90;;;;;;5066804;28;20795;-73
2022/11/08 02:35:15;;;;;;;0.40;0.40;;;4.90;99.90;;;;;;5054709;28;20436;-73
2022/11/08 02:37:46;;;;;;;0.80;0.80;;;4.80;99.90;;;;;;5068431;28;20420;-73
2022/11/08 02:40:13;;;;;;;0.75;0.75;;;4.70;99.90;;;;;;5062827;28;20433;-74
2022/11/08 02:42:43;;;;;;;1.50;0.70;;;4.70;99.90;;;;;;5060350;28;20810;-74
2022/11/08 02:45:09;;;;;;;7.68;1.13;;;4.80;99.90;;;;;;5060092;28;20897;-74
2022/11/08 02:47:36;;;;;;;2.13;0.57;;;4.90;99.90;;;;;;5071652;28;20428;-73
2022/11/08 02:50:03;;;;;;;0.60;0.60;;;4.90;99.90;;;;;;5066445;28;20438;-73
2022/11/08 02:52:30;;;;;;;2.30;0.70;;;4.80;99.90;;;;;;5071512;28;20427;-73
2022/11/08 02:54:56;;;;;;;0.43;0.43;;;4.60;99.90;;;;;;5062944;28;20848;-74
2022/11/08 02:57:23;;;;;;;1.00;0.52;;;4.50;99.90;;;;;;5066843;28;20427;-73
2022/11/08 02:59:50;;;;;;;0.55;0.55;;;4.60;99.90;;;;;;5067819;28;20890;-73
2022/11/08 03:02:16;;;;;;;0.65;0.55;;;4.60;99.90;;;;;;5052063;28;20436;-73
2022/11/08 03:04:43;;;;;;;0.70;0.65;;;4.50;99.90;;;;;;5057658;28;20470;-74
2022/11/08 03:07:10;;;;;;;0.77;0.77;;;4.40;99.90;;;;;;5062174;28;21171;-73
2022/11/08 03:09:36;;;;;;;0.38;0.38;;;4.20;99.90;;;;;;5062799;28;20435;-73
2022/11/08 03:12:03;;;;;;;0.43;0.43;;;4.20;99.90;;;;;;5062847;28;20423;-73
2022/11/08 03:14:30;;;;;;;0.30;0.30;;;4.20;99.90;;;;;;5069117;28;20433;-74
2022/11/08 03:16:57;;;;;;;0.82;0.55;;;4.10;99.90;;;;;;5062777;28;20973;-73
2022/11/08 03:19:23;;;;;;;0.50;0.50;;;4.10;99.90;;;;;;5064259;28;21030;-73
2022/11/08 03:21:50;;;;;;;0.52;0.52;;;4.10;99.90;;;;;;5062792;28;20944;-73
2022/11/08 03:24:17;;;;;;;1.35;0.73;;;4.10;99.90;;;;;;5068121;28;20427;-74
2022/11/08 03:26:43;;;;;;;0.57;0.30;;;4.00;99.90;;;;;;5066717;28;20427;-72
2022/11/08 03:29:10;;;;;;;0.38;0.38;;;4.10;99.90;;;;;;5057950;28;20423;-73
2022/11/08 03:31:37;;;;;;;0.40;0.40;;;4.20;99.90;;;;;;5071328;28;20506;-72
2022/11/08 03:34:03;;;;;;;0.40;0.40;;;4.20;99.90;;;;;;5068714;28;20423;-73
2022/11/08 03:36:30;;;;;;;0.50;0.50;;;4.20;99.90;;;;;;5055394;28;20915;-73
2022/11/08 03:38:57;;;;;;;1.85;0.70;;;4.00;99.90;;;;;;5064463;28;20480;-72
2022/11/08 03:41:23;;;;;;;0.40;0.40;;;4.00;99.90;;;;;;5061919;28;20423;-73
2022/11/08 03:43:50;;;;;;;1.90;0.38;;;3.90;99.90;;;;;;5059981;28;20430;-73
2022/11/08 03:46:17;;;;;;;0.45;0.45;;;3.80;99.90;;;;;;5056793;28;20985;-72
2022/11/08 03:48:44;;;;;;;0.30;0.30;;;3.70;99.90;;;;;;5066478;28;20437;-72
2022/11/08 03:51:10;;;;;;;0.40;0.40;;;3.60;99.90;;;;;;5050499;28;20969;-72
2022/11/08 03:53:37;;;;;;;0.40;0.38;;;3.50;99.90;;;;;;5058677;28;20441;-73
2022/11/08 03:56:04;;;;;;;0.43;0.43;;;3.50;99.90;;;;;;5065641;28;20434;-73
2022/11/08 03:58:31;;;;;;;0.28;0.28;;;3.50;99.90;;;;;;5066838;28;20436;-73
2022/11/08 04:01:01;;;;;;;3.80;0.60;;;3.50;99.90;;;;;;5058020;28;20437;-72
2022/11/08 04:03:28;;;;;;;0.70;0.60;;;3.50;99.90;;;;;;5061131;28;20464;-73
2022/11/08 04:05:59;;;;;;;1.00;0.90;;;3.50;99.90;;;;;;5064371;28;20511;-72
2022/11/08 04:08:27;;;;;;;0.35;0.35;;;3.40;99.90;;;;;;5054821;28;20440;-73
2022/11/08 04:15:13;;;;;;;0.40;0.40;;;3.40;99.90;;;;;;5065766;28;20435;-72
2022/11/08 04:16:33;;;;;;;0.30;0.30;;;3.40;99.90;;;;;;5067129;28;20427;-72
2022/11/08 04:21:47;;;;;;;0.30;0.30;;;3.40;99.90;;;;;;5070791;28;20431;-73
2022/11/08 04:24:14;;;;;;;0.70;0.50;;;3.40;99.90;;;;;;5065092;28;20459;-73
2022/11/08 04:26:41;;;;;;;0.45;0.45;;;3.30;99.90;;;;;;5061067;28;20436;-73
2022/11/08 04:29:08;;;;;;;0.25;0.25;;;3.30;99.90;;;;;;5067980;28;20488;-73
2022/11/08 04:31:35;;;;;;;0.50;0.50;;;3.30;99.90;;;;;;5064713;28;20429;-73
2022/11/08 04:34:02;;;;;;;0.40;0.40;;;3.30;99.90;;;;;;5062511;28;20431;-73
2022/11/08 04:36:29;;;;;;;0.60;0.60;;;3.20;99.90;;;;;;5067878;28;20434;-73
2022/11/08 04:38:55;;;;;;;0.50;0.50;;;3.20;99.90;;;;;;5066958;28;20495;-72
2022/11/08 04:41:24;;;;;;;0.52;0.52;;;3.30;99.90;;;;;;5073995;28;20429;-73
2022/11/08 04:43:54;;;;;;;0.40;0.40;;;3.30;99.90;;;;;;5063000;28;20461;-73
2022/11/08 04:46:25;;;;;;;0.30;0.30;;;3.40;99.90;;;;;;5058503;28;20454;-73
2022/11/08 04:48:54;;;;;;;1.73;0.80;;;3.40;99.90;;;;;;5056879;28;20547;-73
2022/11/08 04:51:27;;;;;;;0.32;0.32;;;3.30;99.90;;;;;;5063358;28;20439;-73
2022/11/08 04:53:56;;;;;;;0.90;0.70;;;3.20;99.90;;;;;;5058997;28;20431;-73
2022/11/08 04:56:24;;;;;;;1.52;0.57;;;3.00;99.90;;;;;;5070758;28;20431;-73
2022/11/08 04:58:53;;;;;;;0.50;0.50;;;2.90;99.90;;;;;;5070471;28;20589;-73
2022/11/08 05:01:24;;;;;;;1.50;0.40;;;2.80;99.90;;;;;;5072390;28;20506;-73
2022/11/08 05:03:52;;;;;;;0.43;0.43;;;2.80;99.90;;;;;;5071332;28;20474;-73
2022/11/08 05:06:30;;;;;;;0.47;0.47;;;2.70;99.90;;;;;;5073061;28;20437;-73
2022/11/08 05:08:58;;;;;;;0.90;0.80;;;2.60;99.90;;;;;;5063437;28;20441;-73
2022/11/08 05:11:26;;;;;;;1.37;0.67;;;2.50;99.90;;;;;;5065702;28;20427;-73
2022/11/08 05:13:54;;;;;;;0.68;0.68;;;2.40;99.90;;;;;;5072201;28;20427;-73
2022/11/08 05:16:28;;;;;;;0.60;0.60;;;2.40;99.90;;;;;;5071718;28;20434;-73
2022/11/08 05:18:55;;;;;;;1.20;1.00;;;2.50;99.90;;;;;;5066442;28;20429;-74
2022/11/08 05:24:12;;;;;;;0.80;0.30;;;2.50;99.90;;;;;;5067245;28;20427;-74
2022/11/08 05:26:43;;;;;;;1.40;0.55;;;2.50;99.90;;;;;;5066456;28;20442;-73
2022/11/08 05:29:16;;;;;;;0.90;0.50;;;2.50;99.90;;;;;;5067949;28;20833;-73
2022/11/08 05:31:44;;;;;;;0.50;0.50;;;2.50;99.90;;;;;;5059290;28;20439;-73
2022/11/08 05:34:10;;;;;;;1.10;0.70;;;2.40;99.90;;;;;;5067707;28;20458;-73
2022/11/08 05:36:40;;;;;;;0.60;0.55;;;2.40;99.90;;;;;;5064200;28;20441;-72
2022/11/08 05:39:07;;;;;;;1.50;0.63;;;2.40;99.90;;;;;;5060679;28;20435;-73
2022/11/08 05:41:37;;;;;;;1.70;0.80;;;2.40;99.90;;;;;;5071112;28;20997;-72
2022/11/08 05:44:05;;;;;;;0.32;0.32;;;2.40;99.90;;;;;;5068855;28;20419;-73
2022/11/08 05:46:32;;;;;;;0.32;0.32;;;2.60;99.90;;;;;;5058795;28;21148;-72
2022/11/08 05:49:02;;;;;;;0.80;0.70;;;2.50;99.90;;;;;;5062568;28;20438;-73
2022/11/08 05:51:30;;;;;;;0.70;0.40;;;2.40;99.90;;;;;;5059510;28;20790;-72
2022/11/08 05:53:56;;;;;;;0.70;0.70;;;2.40;99.90;;;;;;5064771;28;20428;-72
2022/11/08 05:56:23;;;;;;;0.60;0.60;;;2.50;99.90;;;;;;5060269;28;20424;-73
2022/11/08 05:58:50;;;;;;;0.73;0.73;;;2.60;99.90;;;;;;5054481;28;20440;-72
2022/11/08 06:01:18;;;;;;;3.13;2.17;;;2.80;99.90;;;;;;5050399;28;20433;-72
2022/11/08 06:03:46;;;;;;;2.17;1.98;;;2.80;99.90;;;;;;5054469;28;20453;-72
2022/11/08 06:06:18;;;;;;;2.40;1.20;;;2.80;99.90;;;;;;5055123;28;20992;-72
2022/11/08 06:08:48;;;;;;;0.40;0.40;;;2.80;99.90;;;;;;5062704;28;20448;-73
2022/11/08 06:11:21;;;;;;;1.13;0.75;;;2.90;99.90;;;;;;5059127;28;20476;-74
2022/11/08 06:13:48;;;;;;;0.80;0.40;;;2.90;99.90;;;;;;5056363;28;20441;-74
2022/11/08 06:16:16;;;;;;;3.07;0.90;;;2.90;99.90;;;;;;5058277;28;20427;-74
2022/11/08 06:18:43;;;;;;;0.82;0.82;;;2.70;99.90;;;;;;5064526;28;20767;-74
2022/11/08 06:21:13;;;;;;;0.50;0.50;;;2.60;99.90;;;;;;5058720;28;20447;-74
2022/11/08 06:23:40;;;;;;;0.65;0.65;;;2.50;99.90;;;;;;5067653;28;20449;-74
2022/11/08 06:26:07;;;;;;;0.47;0.47;;;2.50;99.90;;;;;;5056228;28;20440;-73
2022/11/08 06:28:34;;;;;;;1.40;1.10;;;2.60;99.90;;;;;;5063145;28;20922;-74
2022/11/08 06:31:02;;;;;;;0.80;0.80;;;2.60;99.90;;;;;;5065603;28;20425;-74
2022/11/08 06:33:30;;;;;;;1.02;1.02;;;2.70;99.90;;;;;;5057161;28;20441;-73
2022/11/08 06:35:56;;;;;;;0.60;0.60;;;2.70;99.90;;;;;;5064654;28;20429;-74
2022/11/08 06:38:23;;;;;;;0.82;0.82;;;2.80;99.90;;;;;;5061748;28;20905;-74
2022/11/08 06:40:50;;;;;;;2.80;1.00;;;2.90;99.90;;;;;;5063944;28;20427;-73
2022/11/08 06:43:17;;;;;;;0.50;0.50;;;3.00;99.90;;;;;;5052013;28;20435;-74
2022/11/08 06:45:46;;;;;;;1.10;0.70;;;3.00;99.90;;;;;;5054887;28;20436;-74
2022/11/08 06:48:13;;;;;;;0.60;0.60;;;3.10;99.90;;;;;;5077104;28;20433;-74
2022/11/08 06:50:42;;;;;;;0.50;0.50;;;3.10;99.90;;;;;;5071479;28;20432;-75
2022/11/08 06:53:12;;;;;;;0.63;0.63;;;3.20;99.90;;;;;;5078146;28;20946;-74
2022/11/08 06:55:39;;;;;;;0.67;0.67;;;3.20;99.90;;;;;;5065993;28;20437;-74
2022/11/08 06:58:06;;;;;;;1.25;1.17;;;3.20;99.90;;;;;;5064729;28;20424;-73
2022/11/08 07:00:33;;;;;;;1.20;0.67;;;3.30;99.90;;;;;;5065051;28;20963;-74
2022/11/08 07:03:03;;;;;;;1.00;0.73;;;3.50;99.90;;;;;;5062045;28;20432;-74
2022/11/08 07:05:31;;;;;;;1.17;1.08;;;3.70;99.90;;;;;;5059967;28;20427;-74
2022/11/08 07:07:59;;;;;;;0.50;0.50;;;4.00;99.90;;;;;;5061351;28;20427;-75
2022/11/08 07:10:28;;;;;;;1.20;0.90;;;4.20;99.90;;;;;;5066189;28;20467;-75
2022/11/08 07:13:04;;;;;;;0.90;0.40;;;4.50;99.90;;;;;;5064877;28;20967;-75
2022/11/08 07:15:33;;;;;;;0.70;0.70;;;4.60;99.90;;;;;;5068056;28;20518;-75
2022/11/08 07:18:08;;;;;;;0.70;0.50;;;4.60;99.90;;;;;;5060112;28;20499;-74
2022/11/08 07:20:35;;;;;;;0.43;0.43;;;4.70;99.90;;;;;;5057792;28;20485;-74
2022/11/08 07:23:10;;;;;;;1.40;0.60;;;4.70;99.90;;;;;;5062585;28;20490;-73
2022/11/08 07:25:37;;;;;;;2.08;0.57;;;4.90;99.90;;;;;;5055077;28;20429;-74
2022/11/08 07:28:06;;;;;;;0.73;0.73;;;4.90;99.90;;;;;;5070284;28;20447;-73
2022/11/08 07:30:34;;;;;;;1.00;1.00;;;4.90;99.90;;;;;;5067250;28;20442;-73
2022/11/08 07:33:01;;;;;;;0.80;0.80;;;5.00;99.90;;;;;;5067301;28;20477;-75
2022/11/08 07:35:30;;;;;;;1.48;1.15;;;5.10;99.90;;;;;;5066927;28;21002;-73
2022/11/08 07:37:57;;;;;;;1.02;0.77;;;5.20;99.90;;;;;;5068081;28;20432;-74
2022/11/08 07:40:24;;;;;;;1.23;1.13;;;5.30;99.90;;;;;;5059838;28;20437;-74
2022/11/08 07:42:51;;;;;;;0.85;0.70;;;5.40;99.90;;;;;;5056220;28;20425;-74
2022/11/08 07:45:38;;;;;;;1.80;0.90;;;5.50;99.90;;;;;;5060602;28;20479;-74
2022/11/08 07:48:15;;;;;;;1.83;1.40;;;5.60;99.90;;;;;;5061048;28;20437;-74
2022/11/08 07:50:42;;;;;;;2.40;0.70;;;5.60;99.90;;;;;;5066507;28;20439;-74
2022/11/08 07:53:09;;;;;;;1.15;0.70;;;5.60;99.90;;;;;;5065106;28;20429;-74
2022/11/08 07:55:37;;;;;;;0.60;0.60;;;5.60;99.90;;;;;;5060971;28;20433;-74
2022/11/08 07:58:05;;;;;;;1.95;1.23;;;5.60;99.90;;;;;;5063639;28;20431;-74
2022/11/08 08:00:35;;;;;;;0.87;0.87;;;5.60;99.90;;;;;;5066913;28;20433;-75
2022/11/08 08:03:04;;;;;;;1.30;1.17;;;5.50;99.90;;;;;;5068040;28;20431;-74
2022/11/08 08:05:36;;;;;;;1.17;1.08;;;5.40;99.90;;;;;;5064551;28;20939;-75
2022/11/08 08:08:03;;;;;;;0.90;0.82;;;5.40;99.90;;;;;;5060632;28;20440;-74
2022/11/08 08:10:30;;;;;;;1.90;0.70;;;5.40;99.90;;;;;;5066596;28;20431;-74
2022/11/08 08:12:57;;;;;;;0.73;0.73;;;5.30;99.90;;;;;;5061836;28;20428;-74
2022/11/08 08:15:25;;;;;;;0.65;0.65;;;5.30;99.90;;;;;;5067193;28;20432;-73
2022/11/08 08:17:52;;;;;;;0.50;0.50;;;5.20;99.90;;;;;;5080165;28;20437;-74
2022/11/08 08:20:18;;;;;;;1.40;1.20;;;5.20;99.90;;;;;;5072369;28;20419;-75
2022/11/08 08:22:49;;;;;;;1.30;1.20;;;5.30;99.90;;;;;;5066728;28;20435;-74
2022/11/08 08:25:17;;;;;;;2.88;1.00;;;5.30;99.90;;;;;;5075746;28;20426;-73
2022/11/08 08:27:51;;;;;;;0.85;0.85;;;5.50;99.90;;;;;;5078215;28;20488;-74
2022/11/08 08:30:19;;;;;;;0.68;0.57;;;5.70;99.90;;;;;;5057907;28;20436;-74
2022/11/08 08:32:46;;;;;;;3.50;1.50;;;5.70;99.90;;;;;;5051192;28;20434;-74
2022/11/08 08:35:36;;;;;;;2.45;1.67;;;5.80;99.90;;;;;;5066655;28;20984;-74
2022/11/08 08:38:05;;;;;;;2.08;1.70;;;5.80;99.90;;;;;;5075668;28;20429;-74
2022/11/08 08:40:32;;;;;;;1.38;1.27;;;5.80;99.90;;;;;;5079045;28;20459;-73
2022/11/08 08:43:03;;;;;;;1.60;1.10;;;5.80;99.90;;;;;;5062051;28;20421;-73
2022/11/08 08:45:33;;;;;;;0.90;0.80;;;5.90;99.90;;;;;;5074092;28;20514;-73
2022/11/08 08:48:03;;;;;;;1.50;0.70;;;6.00;99.90;;;;;;5076629;28;20478;-73
2022/11/08 08:50:31;;;;;;;0.30;0.30;;;6.00;99.90;;;;;;5073497;28;20920;-74
2022/11/08 08:53:02;;;;;;;0.40;0.40;;;6.00;99.90;;;;;;5065504;28;20424;-74
2022/11/08 08:55:29;;;;;;;0.90;0.90;;;6.00;99.90;;;;;;5057108;28;20457;-74
2022/11/08 08:57:56;;;;;;;0.52;0.52;;;6.00;99.90;;;;;;5062753;28;20435;-73
2022/11/08 09:00:23;;;;;;;0.50;0.50;;;6.00;99.90;;;;;;5063352;28;20433;-73
2022/11/08 09:03:11;;;;;;;0.50;0.50;;;6.00;99.90;;;;;;5060030;28;20835;-73
2022/11/08 09:05:42;;;;;;;1.25;0.50;;;6.10;99.90;;;;;;5052810;28;20479;-74
2022/11/08 09:08:10;;;;;;;0.50;0.50;;;6.10;99.90;;;;;;5061114;28;21151;-73
2022/11/08 09:10:37;;;;;;;0.40;0.40;;;6.10;99.90;;;;;;5074166;28;20467;-74
2022/11/08 09:13:05;;;;;;;0.50;0.50;;;6.20;99.90;;;;;;5056934;28;20443;-74
2022/11/08 09:15:32;;;;;;;0.52;0.52;;;6.40;99.90;;;;;;5060734;28;20933;-74
2022/11/08 09:17:58;;;;;;;0.20;0.20;;;7.00;99.90;;;;;;5058702;28;20448;-74
2022/11/08 09:20:25;;;;;;;0.40;0.40;;;7.80;99.90;;;;;;5059606;28;20794;-75
2022/11/08 09:22:52;;;;;;;0.50;0.50;;;8.50;99.90;;;;;;5054493;28;20468;-75
2022/11/08 09:25:19;;;;;;;0.70;0.47;;;9.10;99.90;;;;;;5061144;28;21093;-75
2022/11/08 09:27:45;;;;;;;0.70;0.63;;;9.90;99.90;;;;;;5060322;28;20440;-75
2022/11/08 09:30:12;;;;;;;0.82;0.82;;;10.30;99.90;;;;;;5060732;28;20429;-73
2022/11/08 09:32:39;;;;;;;0.60;0.57;;;10.70;99.90;;;;;;5061310;28;20935;-73
2022/11/08 09:35:25;;;;;;;0.90;0.90;;;10.90;99.90;;;;;;5066270;28;20540;-73
2022/11/08 09:37:52;;;;;;;2.20;1.27;;;11.50;99.90;;;;;;5065891;28;20445;-74
2022/11/08 09:40:40;;;;;;;1.92;1.05;;;11.90;99.90;;;;;;5056769;28;20432;-74
2022/11/08 09:43:48;;;;;;;1.42;1.20;;;11.00;99.90;;;;;;5064106;28;20427;-73
2022/11/08 09:46:41;;;;;;;1.37;0.93;;;11.00;1.00;;;;;;5062234;28;20423;-75
2022/11/08 09:49:15;;;;;;;1.20;1.10;;;11.40;99.90;;;;;;5058016;28;20450;-75
2022/11/08 09:51:42;;;;;;;4.38;1.25;;;11.90;99.90;;;;;;5060784;28;20950;-75
2022/11/08 09:54:41;;;;;;;0.90;0.90;;;12.70;99.90;;;;;;5057233;28;20425;-73
2022/11/08 09:57:22;;;;;;;1.30;1.20;;;13.00;99.90;;;;;;5051409;28;20487;-74
2022/11/08 09:59:58;;;;;;;1.27;1.00;;;13.20;67.80;;;;;;5063886;28;20435;-73
2022/11/08 10:02:26;;;;;;;1.10;1.10;;;13.30;1.00;;;;;;5060266;28;20861;-73
2022/11/08 10:05:07;;;;;;;1.80;1.10;;;13.70;1.00;;;;;;5051491;28;20423;-73
2022/11/08 10:07:58;;;;;;;1.45;0.95;;;13.60;1.00;;;;;;5059615;28;20427;-73
2022/11/08 10:10:56;;;;;;;0.90;0.90;;;13.80;99.90;;;;;;5058691;28;20491;-74
2022/11/08 10:13:51;;;;;;;1.57;1.47;;;14.10;99.90;;;;;;5054326;28;20429;-74
2022/11/08 10:16:23;;;;;;;1.20;0.98;;;14.10;99.90;;;;;;5066406;28;20486;-74
2022/11/08 10:19:21;;;;;;;1.20;0.90;;;14.50;99.90;;;;;;5066294;28;20439;-74
2022/11/08 10:22:01;;;;;;;1.65;1.35;;;14.70;99.90;;;;;;5061677;28;20446;-74
2022/11/08 10:24:38;;;;;;;1.23;1.13;;;15.20;99.90;;;;;;5066047;28;20430;-74
2022/11/08 10:27:15;;;;;;;0.90;0.90;;;15.50;99.90;;;;;;5064179;28;20443;-74
2022/11/08 10:29:45;;;;;;;1.35;1.27;;;15.80;99.90;;;;;;5057029;28;20429;-74
2022/11/08 10:32:19;;;;;;;1.00;1.00;;;15.40;99.90;;;;;;5056725;28;20431;-74
2022/11/08 10:34:52;;;;;;;1.00;1.00;;;15.70;99.90;;;;;;5067828;28;20489;-74
2022/11/08 10:37:20;;;;;;;1.10;1.00;;;15.90;99.90;;;;;;5064830;28;20439;-74
2022/11/08 10:40:02;;;;;;;0.80;0.80;;;16.20;99.90;;;;;;5065429;28;20429;-74
2022/11/08 10:42:43;;;;;;;0.80;0.80;;;16.70;99.90;;;;;;5053577;28;20435;-74
2022/11/08 10:45:10;;;;;;;2.80;1.00;;;16.70;99.90;;;;;;5049640;28;20486;-75
2022/11/08 10:47:38;;;;;;;1.20;0.90;;;16.10;99.90;;;;;;5053826;28;20518;-74
2022/11/08 10:50:19;;;;;;;1.00;1.00;;;16.00;99.90;;;;;;5054386;28;20439;-71
2022/11/08 10:52:51;;;;;;;0.90;0.90;;;15.60;99.90;;;;;;5064674;28;20929;-72
2022/11/08 10:55:27;;;;;;;0.80;0.70;;;15.60;99.90;;;;;;5065496;28;20493;-75
2022/11/08 10:57:54;;;;;;;0.90;0.90;;;15.70;99.90;;;;;;5068305;28;20510;-77
2022/11/08 11:00:20;;;;;;;0.60;0.60;;;16.00;99.90;;;;;;5064194;28;20499;-75
2022/11/08 11:03:09;;;;;;;2.20;0.90;;;16.50;99.90;;;;;;5060498;28;20432;-77
2022/11/08 11:05:41;;;;;;;0.80;0.80;;;17.00;99.90;;;;;;5056137;28;20429;-75
2022/11/08 11:08:08;;;;;;;1.70;0.70;;;17.60;99.90;;;;;;5076531;28;20430;-75
2022/11/08 11:10:42;;;;;;;0.60;0.60;;;17.70;99.90;;;;;;5058919;28;20433;-74
2022/11/08 11:13:21;;;;;;;1.50;0.80;;;17.60;99.90;;;;;;5056999;28;20432;-72
2022/11/08 11:15:56;;;;;;;0.80;0.80;;;16.80;99.90;;;;;;5063395;28;20428;-72
2022/11/08 11:18:37;;;;;;;0.70;0.70;;;16.30;99.90;;;;;;5052607;28;20438;-72
2022/11/08 11:21:16;;;;;;;1.20;0.80;;;15.90;99.90;;;;;;5057915;28;20431;-72
2022/11/08 11:23:53;;;;;;;0.75;0.75;;;15.90;99.90;;;;;;5055359;28;20428;-72
2022/11/08 11:26:27;;;;;;;0.63;0.63;;;15.60;99.90;;;;;;5058558;28;20489;-72
2022/11/08 11:29:04;;;;;;;0.80;0.80;;;15.40;99.90;;;;;;5057557;28;20433;-72
2022/11/08 11:31:34;;;;;;;0.65;0.65;;;15.30;99.90;;;;;;5054420;28;20431;-73
2022/11/08 11:34:16;;;;;;;0.60;0.60;;;15.70;99.90;;;;;;5059642;28;20450;-73
2022/11/08 11:36:54;;;;;;;1.00;1.00;;;16.20;99.90;;;;;;5062856;28;20441;-72
2022/11/08 11:39:40;;;;;;;0.82;0.52;;;16.30;99.90;;;;;;5059168;28;20492;-70
2022/11/08 11:42:23;;;;;;;2.10;1.00;;;16.30;99.90;;;;;;5059097;28;20442;-71
2022/11/08 11:45:21;;;;;;;0.60;0.60;;;16.50;99.90;;;;;;5049953;28;20468;-70
2022/11/08 11:47:56;;;;;;;0.88;0.85;;;16.50;99.90;;;;;;5055503;28;20459;-70
2022/11/08 11:50:33;;;;;;;1.52;0.75;;;16.30;99.90;;;;;;5047755;28;20441;-71
2022/11/08 11:53:24;;;;;;;0.82;0.80;;;16.30;99.90;;;;;;5057014;28;20790;-71
2022/11/08 11:55:57;;;;;;;0.65;0.65;;;16.40;99.90;;;;;;5053509;28;20439;-72
2022/11/08 11:59:05;;;;;;;0.50;0.50;;;16.40;99.90;;;;;;5058932;28;20440;-73
2022/11/08 12:02:01;;;;;;;0.80;0.60;;;16.60;99.90;;;;;;5057096;28;20582;-71
2022/11/08 12:04:50;;;;;;;0.52;0.52;;;16.90;99.90;;;;;;5015834;28;20437;-71
2022/11/08 12:07:26;;;;;;;0.80;0.70;;;17.30;99.90;;;;;;5062282;28;20493;-71
2022/11/08 12:10:18;;;;;;;0.73;0.52;;;17.40;99.90;;;;;;5056695;28;20435;-71
2022/11/08 12:13:07;;;;;;;0.70;0.40;;;17.20;99.90;;;;;;5072021;28;20930;-71
2022/11/08 12:16:05;;;;;;;0.32;0.32;;;17.10;99.90;;;;;;5056848;28;20817;-71
2022/11/08 12:18:57;;;;;;;0.70;0.47;;;17.10;99.90;;;;;;5054122;28;20896;-71
2022/11/08 12:21:42;;;;;;;0.57;0.57;;;16.90;99.90;;;;;;5060889;28;20427;-70
2022/11/08 12:24:37;;;;;;;0.40;0.40;;;16.70;99.90;;;;;;5061660;28;20424;-70
2022/11/08 12:27:20;;;;;;;0.60;0.50;;;16.60;99.90;;;;;;5029751;28;20494;-71
2022/11/08 12:29:56;;;;;;;0.40;0.40;;;16.60;99.90;;;;;;5054233;28;20488;-72
2022/11/08 12:32:41;;;;;;;0.93;0.43;;;16.30;99.90;;;;;;5056668;28;20431;-71
2022/11/08 12:35:37;;;;;;;0.50;0.50;;;16.00;99.90;;;;;;5063912;28;20419;-71
2022/11/08 12:38:16;;;;;;;1.33;0.60;;;15.70;99.90;;;;;;5049701;28;20435;-71
2022/11/08 12:40:52;;;;;;;0.90;0.45;;;15.70;99.90;;;;;;5055466;28;20427;-71
2022/11/08 12:43:34;;;;;;;0.70;0.40;;;15.80;99.90;;;;;;5058578;28;20427;-70
2022/11/08 12:46:17;;;;;;;1.10;0.40;;;15.80;99.90;;;;;;5065709;28;20427;-71
2022/11/08 12:48:58;;;;;;;0.95;0.63;;;15.90;99.90;;;;;;5057035;28;20898;-70
2022/11/08 12:52:22;;;;;;;1.00;0.40;;;16.20;99.90;;;;;;5062970;28;20435;-71
2022/11/08 12:55:02;;;;;;;1.30;0.80;;;16.60;99.90;;;;;;5002593;28;20437;-71
2022/11/08 12:57:30;;;;;;;0.50;0.50;;;16.40;99.90;;;;;;5000102;28;20432;-70
2022/11/08 13:00:13;;;;;;;0.57;0.57;;;16.90;99.90;;;;;;5004678;28;20926;-71
2022/11/08 13:02:41;;;;;;;3.90;0.50;;;17.10;99.90;;;;;;5004897;28;20424;-71
2022/11/08 13:05:29;;;;;;;0.60;0.60;;;17.40;99.90;;;;;;5005563;28;20466;-72
2022/11/08 13:08:02;;;;;;;0.40;0.40;;;17.70;99.90;;;;;;5003353;28;20511;-71
2022/11/08 13:11:02;;;;;;;0.40;0.40;;;17.10;99.90;;;;;;5006649;28;20520;-73
2022/11/08 13:13:54;;;;;;;0.40;0.40;;;16.60;99.90;;;;;;5006755;28;20474;-72
2022/11/08 13:16:37;;;;;;;0.38;0.38;;;16.60;99.90;;;;;;5002012;28;20436;-71
2022/11/08 13:19:05;;;;;;;0.57;0.57;;;16.40;99.90;;;;;;4999680;28;20444;-70
2022/11/08 13:21:37;;;;;;;0.60;0.60;;;16.30;99.90;;;;;;5004993;28;20459;-71
2022/11/08 13:24:04;;;;;;;0.50;0.50;;;16.20;99.90;;;;;;4990891;28;20994;-71
2022/11/08 13:26:50;;;;;;;0.70;0.47;;;16.00;99.90;;;;;;5060189;28;20429;-71
2022/11/08 13:29:26;;;;;;;0.50;0.50;;;15.70;99.90;;;;;;5078137;28;20425;-71
2022/11/08 13:31:55;;;;;;;0.30;0.30;;;15.40;99.90;;;;;;5059182;28;20427;-71
2022/11/08 13:34:41;;;;;;;0.50;0.50;;;15.40;99.90;;;;;;5060476;28;20431;-70
2022/11/08 13:37:36;;;;;;;0.40;0.40;;;15.50;99.90;;;;;;5062782;28;20436;-72
2022/11/08 13:40:02;;;;;;;0.80;0.60;;;15.60;99.90;;;;;;5064379;28;20482;-77